sensor_id;sensor_type;location;lat;lon;timestamp;temperature;humidity
21495;DHT22;10909;53.590;10.054;2023-07-29T00:00:34;23.20;70.00
21495;DHT22;10909;53.590;10.054;2023-07-29T00:03:00;23.20;70.00
21495;DHT22;10909;53.590;10.054;2023-07-29T00:05:27;23.10;70.00
21495;DHT22;10909;53.590;10.054;2023-07-29T00:07:53;23.10;70.00
21495;DHT22;10909;53.590;10.054;2023-07-29T00:10:19;23.00;70.20
21495;DHT22;10909;53.590;10.054;2023-07-29T00:12:44;23.00;70.40
21495;DHT22;10909;53.590;10.054;2023-07-29T00:15:10;23.00;70.50
21495;DHT22;10909;53.590;10.054;2023-07-29T00:17:36;22.90;70.60
21495;DHT22;10909;53.590;10.054;2023-07-29T00:20:04;22.90;70.70
21495;DHT22;10909;53.590;10.054;2023-07-29T00:22:30;22.90;70.80
21495;DHT22;10909;53.590;10.054;2023-07-29T00:24:56;22.90;70.80
21495;DHT22;10909;53.590;10.054;2023-07-29T00:27:23;22.80;70.80
21495;DHT22;10909;53.590;10.054;2023-07-29T00:29:49;22.80;70.90
21495;DHT22;10909;53.590;10.054;2023-07-29T00:32:15;22.80;71.00
21495;DHT22;10909;53.590;10.054;2023-07-29T00:34:41;22.70;71.10
21495;DHT22;10909;53.590;10.054;2023-07-29T00:37:06;22.70;71.10
21495;DHT22;10909;53.590;10.054;2023-07-29T00:39:32;22.70;71.20
21495;DHT22;10909;53.590;10.054;2023-07-29T00:41:58;22.70;71.30
21495;DHT22;10909;53.590;10.054;2023-07-29T00:44:24;22.60;71.60
21495;DHT22;10909;53.590;10.054;2023-07-29T00:46:53;22.60;71.50
21495;DHT22;10909;53.590;10.054;2023-07-29T00:49:20;22.60;71.70
21495;DHT22;10909;53.590;10.054;2023-07-29T00:51:46;22.50;71.70
21495;DHT22;10909;53.590;10.054;2023-07-29T00:54:12;22.50;71.80
21495;DHT22;10909;53.590;10.054;2023-07-29T00:56:38;22.50;72.00
21495;DHT22;10909;53.590;10.054;2023-07-29T00:59:04;22.50;72.20
21495;DHT22;10909;53.590;10.054;2023-07-29T01:01:30;22.40;72.20
21495;DHT22;10909;53.590;10.054;2023-07-29T01:03:56;22.40;72.40
21495;DHT22;10909;53.590;10.054;2023-07-29T01:06:39;22.40;72.60
21495;DHT22;10909;53.590;10.054;2023-07-29T01:09:33;22.40;73.20
21495;DHT22;10909;53.590;10.054;2023-07-29T01:17:12;22.40;73.40
21495;DHT22;10909;53.590;10.054;2023-07-29T01:20:07;22.40;73.50
21495;DHT22;10909;53.590;10.054;2023-07-29T01:22:37;22.40;74.00
21495;DHT22;10909;53.590;10.054;2023-07-29T01:25:09;22.40;73.80
21495;DHT22;10909;53.590;10.054;2023-07-29T01:27:42;22.40;74.20
21495;DHT22;10909;53.590;10.054;2023-07-29T01:30:08;22.40;74.20
21495;DHT22;10909;53.590;10.054;2023-07-29T01:35:36;22.40;74.70
21495;DHT22;10909;53.590;10.054;2023-07-29T01:38:18;22.50;75.10
21495;DHT22;10909;53.590;10.054;2023-07-29T01:40:45;22.50;74.80
21495;DHT22;10909;53.590;10.054;2023-07-29T01:43:11;22.50;74.80
21495;DHT22;10909;53.590;10.054;2023-07-29T01:45:37;22.50;74.90
21495;DHT22;10909;53.590;10.054;2023-07-29T01:48:05;22.50;74.90
21495;DHT22;10909;53.590;10.054;2023-07-29T01:50:30;22.60;75.10
21495;DHT22;10909;53.590;10.054;2023-07-29T01:52:57;22.60;75.10
21495;DHT22;10909;53.590;10.054;2023-07-29T01:55:23;22.60;75.20
21495;DHT22;10909;53.590;10.054;2023-07-29T01:57:49;22.60;75.20
21495;DHT22;10909;53.590;10.054;2023-07-29T02:00:15;22.60;75.10
21495;DHT22;10909;53.590;10.054;2023-07-29T02:02:41;22.50;75.00
21495;DHT22;10909;53.590;10.054;2023-07-29T02:05:07;22.50;74.90
21495;DHT22;10909;53.590;10.054;2023-07-29T02:07:32;22.40;75.20
21495;DHT22;10909;53.590;10.054;2023-07-29T02:09:58;22.40;75.50
21495;DHT22;10909;53.590;10.054;2023-07-29T02:12:24;22.30;75.90
21495;DHT22;10909;53.590;10.054;2023-07-29T02:14:49;22.30;76.20
21495;DHT22;10909;53.590;10.054;2023-07-29T02:17:15;22.20;76.40
21495;DHT22;10909;53.590;10.054;2023-07-29T02:19:41;22.20;76.70
21495;DHT22;10909;53.590;10.054;2023-07-29T02:22:06;22.20;77.00
21495;DHT22;10909;53.590;10.054;2023-07-29T02:24:32;22.10;77.00
21495;DHT22;10909;53.590;10.054;2023-07-29T02:26:58;22.10;77.20
21495;DHT22;10909;53.590;10.054;2023-07-29T02:29:23;22.00;77.50
21495;DHT22;10909;53.590;10.054;2023-07-29T02:31:50;22.00;77.70
21495;DHT22;10909;53.590;10.054;2023-07-29T02:34:16;22.00;77.90
21495;DHT22;10909;53.590;10.054;2023-07-29T02:36:41;22.00;77.90
21495;DHT22;10909;53.590;10.054;2023-07-29T02:39:07;22.00;78.20
21495;DHT22;10909;53.590;10.054;2023-07-29T02:41:33;22.00;78.10
21495;DHT22;10909;53.590;10.054;2023-07-29T02:43:58;22.00;78.20
21495;DHT22;10909;53.590;10.054;2023-07-29T02:46:24;22.00;78.30
21495;DHT22;10909;53.590;10.054;2023-07-29T02:48:50;22.00;78.30
21495;DHT22;10909;53.590;10.054;2023-07-29T02:51:16;22.00;78.50
21495;DHT22;10909;53.590;10.054;2023-07-29T02:53:42;22.00;78.60
21495;DHT22;10909;53.590;10.054;2023-07-29T02:56:08;22.00;78.60
21495;DHT22;10909;53.590;10.054;2023-07-29T02:58:35;22.00;78.70
21495;DHT22;10909;53.590;10.054;2023-07-29T03:01:03;22.00;78.70
21495;DHT22;10909;53.590;10.054;2023-07-29T03:03:30;22.00;78.80
21495;DHT22;10909;53.590;10.054;2023-07-29T03:06:03;22.00;78.90
21495;DHT22;10909;53.590;10.054;2023-07-29T03:08:29;22.00;79.30
21495;DHT22;10909;53.590;10.054;2023-07-29T03:10:56;21.90;78.90
21495;DHT22;10909;53.590;10.054;2023-07-29T03:13:22;21.90;79.20
21495;DHT22;10909;53.590;10.054;2023-07-29T03:15:47;21.90;79.30
21495;DHT22;10909;53.590;10.054;2023-07-29T03:18:13;21.90;79.30
21495;DHT22;10909;53.590;10.054;2023-07-29T03:20:39;21.90;79.40
21495;DHT22;10909;53.590;10.054;2023-07-29T03:23:04;21.90;79.50
21495;DHT22;10909;53.590;10.054;2023-07-29T03:25:30;21.90;79.40
21495;DHT22;10909;53.590;10.054;2023-07-29T03:27:55;21.90;79.40
21495;DHT22;10909;53.590;10.054;2023-07-29T03:30:22;21.90;79.50
21495;DHT22;10909;53.590;10.054;2023-07-29T03:32:48;21.90;79.60
21495;DHT22;10909;53.590;10.054;2023-07-29T03:35:14;21.80;79.50
21495;DHT22;10909;53.590;10.054;2023-07-29T03:37:40;21.80;79.70
21495;DHT22;10909;53.590;10.054;2023-07-29T03:40:06;21.80;79.60
21495;DHT22;10909;53.590;10.054;2023-07-29T03:42:32;21.80;79.70
21495;DHT22;10909;53.590;10.054;2023-07-29T03:44:58;21.80;79.70
21495;DHT22;10909;53.590;10.054;2023-07-29T03:47:24;21.80;80.00
21495;DHT22;10909;53.590;10.054;2023-07-29T03:49:50;21.80;80.00
21495;DHT22;10909;53.590;10.054;2023-07-29T03:52:16;21.80;80.00
21495;DHT22;10909;53.590;10.054;2023-07-29T03:54:41;21.80;80.10
21495;DHT22;10909;53.590;10.054;2023-07-29T03:57:07;21.70;80.20
21495;DHT22;10909;53.590;10.054;2023-07-29T03:59:32;21.70;80.30
21495;DHT22;10909;53.590;10.054;2023-07-29T04:01:59;21.70;80.50
21495;DHT22;10909;53.590;10.054;2023-07-29T04:04:24;21.70;80.50
21495;DHT22;10909;53.590;10.054;2023-07-29T04:06:50;21.70;80.70
21495;DHT22;10909;53.590;10.054;2023-07-29T04:09:15;21.70;80.80
21495;DHT22;10909;53.590;10.054;2023-07-29T04:11:41;21.70;80.80
21495;DHT22;10909;53.590;10.054;2023-07-29T04:14:14;21.70;81.00
21495;DHT22;10909;53.590;10.054;2023-07-29T04:16:40;21.70;81.00
21495;DHT22;10909;53.590;10.054;2023-07-29T04:19:05;21.70;81.10
21495;DHT22;10909;53.590;10.054;2023-07-29T04:21:31;21.70;81.10
21495;DHT22;10909;53.590;10.054;2023-07-29T04:23:57;21.80;81.20
21495;DHT22;10909;53.590;10.054;2023-07-29T04:26:22;21.80;81.20
21495;DHT22;10909;53.590;10.054;2023-07-29T04:28:48;21.80;81.20
21495;DHT22;10909;53.590;10.054;2023-07-29T04:31:13;21.80;81.30
21495;DHT22;10909;53.590;10.054;2023-07-29T04:33:39;21.80;81.40
21495;DHT22;10909;53.590;10.054;2023-07-29T04:36:05;21.80;81.40
21495;DHT22;10909;53.590;10.054;2023-07-29T04:38:32;21.90;81.50
21495;DHT22;10909;53.590;10.054;2023-07-29T04:40:59;21.90;81.40
21495;DHT22;10909;53.590;10.054;2023-07-29T04:43:30;21.90;81.40
21495;DHT22;10909;53.590;10.054;2023-07-29T04:45:55;21.90;81.50
21495;DHT22;10909;53.590;10.054;2023-07-29T04:48:21;21.90;81.50
21495;DHT22;10909;53.590;10.054;2023-07-29T04:50:47;21.90;81.40
21495;DHT22;10909;53.590;10.054;2023-07-29T04:53:12;21.90;81.40
21495;DHT22;10909;53.590;10.054;2023-07-29T04:55:38;21.90;81.40
21495;DHT22;10909;53.590;10.054;2023-07-29T04:58:05;21.90;81.40
21495;DHT22;10909;53.590;10.054;2023-07-29T05:00:31;22.00;81.60
21495;DHT22;10909;53.590;10.054;2023-07-29T05:02:57;21.90;81.60
21495;DHT22;10909;53.590;10.054;2023-07-29T05:05:22;22.00;81.70
21495;DHT22;10909;53.590;10.054;2023-07-29T05:07:48;22.00;81.70
21495;DHT22;10909;53.590;10.054;2023-07-29T05:10:13;22.00;81.70
21495;DHT22;10909;53.590;10.054;2023-07-29T05:12:39;22.00;81.70
21495;DHT22;10909;53.590;10.054;2023-07-29T05:15:05;22.00;81.60
21495;DHT22;10909;53.590;10.054;2023-07-29T05:17:37;22.00;81.60
21495;DHT22;10909;53.590;10.054;2023-07-29T05:20:04;22.00;81.40
21495;DHT22;10909;53.590;10.054;2023-07-29T05:22:29;22.00;81.70
21495;DHT22;10909;53.590;10.054;2023-07-29T05:24:55;22.00;81.70
21495;DHT22;10909;53.590;10.054;2023-07-29T05:27:21;22.00;81.90
21495;DHT22;10909;53.590;10.054;2023-07-29T05:29:46;22.00;82.20
21495;DHT22;10909;53.590;10.054;2023-07-29T05:32:12;22.10;82.20
21495;DHT22;10909;53.590;10.054;2023-07-29T05:34:37;22.10;81.90
21495;DHT22;10909;53.590;10.054;2023-07-29T05:37:03;22.10;81.90
21495;DHT22;10909;53.590;10.054;2023-07-29T05:39:29;22.20;81.90
21495;DHT22;10909;53.590;10.054;2023-07-29T05:41:56;22.20;81.80
21495;DHT22;10909;53.590;10.054;2023-07-29T05:44:21;22.20;81.70
21495;DHT22;10909;53.590;10.054;2023-07-29T05:46:47;22.30;81.70
21495;DHT22;10909;53.590;10.054;2023-07-29T05:49:13;22.30;81.80
21495;DHT22;10909;53.590;10.054;2023-07-29T05:51:38;22.30;81.80
21495;DHT22;10909;53.590;10.054;2023-07-29T05:54:04;22.40;82.10
21495;DHT22;10909;53.590;10.054;2023-07-29T05:56:29;22.40;82.00
21495;DHT22;10909;53.590;10.054;2023-07-29T05:58:56;22.50;82.00
21495;DHT22;10909;53.590;10.054;2023-07-29T06:01:22;22.50;82.20
21495;DHT22;10909;53.590;10.054;2023-07-29T06:03:48;22.60;82.20
21495;DHT22;10909;53.590;10.054;2023-07-29T06:06:13;22.60;82.00
21495;DHT22;10909;53.590;10.054;2023-07-29T06:08:39;22.70;81.90
21495;DHT22;10909;53.590;10.054;2023-07-29T06:11:05;22.70;81.70
21495;DHT22;10909;53.590;10.054;2023-07-29T06:13:33;22.70;81.70
21495;DHT22;10909;53.590;10.054;2023-07-29T06:15:59;22.70;81.70
21495;DHT22;10909;53.590;10.054;2023-07-29T06:18:24;22.70;81.80
21495;DHT22;10909;53.590;10.054;2023-07-29T06:20:50;22.70;82.50
21495;DHT22;10909;53.590;10.054;2023-07-29T06:23:16;22.80;81.60
21495;DHT22;10909;53.590;10.054;2023-07-29T06:25:42;22.80;81.50
21495;DHT22;10909;53.590;10.054;2023-07-29T06:28:09;22.90;81.60
21495;DHT22;10909;53.590;10.054;2023-07-29T06:30:35;22.90;81.60
21495;DHT22;10909;53.590;10.054;2023-07-29T06:33:00;22.90;81.40
21495;DHT22;10909;53.590;10.054;2023-07-29T06:35:28;23.00;81.20
21495;DHT22;10909;53.590;10.054;2023-07-29T06:37:54;23.00;81.20
21495;DHT22;10909;53.590;10.054;2023-07-29T06:40:19;23.10;81.20
21495;DHT22;10909;53.590;10.054;2023-07-29T06:42:45;23.10;81.10
21495;DHT22;10909;53.590;10.054;2023-07-29T06:45:11;23.20;81.00
21495;DHT22;10909;53.590;10.054;2023-07-29T06:47:37;23.20;80.90
21495;DHT22;10909;53.590;10.054;2023-07-29T06:50:03;23.30;81.00
21495;DHT22;10909;53.590;10.054;2023-07-29T06:52:28;23.30;80.90
21495;DHT22;10909;53.590;10.054;2023-07-29T06:54:54;23.30;80.80
21495;DHT22;10909;53.590;10.054;2023-07-29T06:57:20;23.40;80.90
21495;DHT22;10909;53.590;10.054;2023-07-29T06:59:45;23.40;80.80
21495;DHT22;10909;53.590;10.054;2023-07-29T07:02:11;23.50;80.70
21495;DHT22;10909;53.590;10.054;2023-07-29T07:04:36;23.50;80.40
21495;DHT22;10909;53.590;10.054;2023-07-29T07:07:02;23.50;80.20
21495;DHT22;10909;53.590;10.054;2023-07-29T07:09:28;23.50;80.00
21495;DHT22;10909;53.590;10.054;2023-07-29T07:11:53;23.50;79.90
21495;DHT22;10909;53.590;10.054;2023-07-29T07:14:19;23.50;79.50
21495;DHT22;10909;53.590;10.054;2023-07-29T07:16:45;23.50;79.40
21495;DHT22;10909;53.590;10.054;2023-07-29T07:19:11;23.50;79.40
21495;DHT22;10909;53.590;10.054;2023-07-29T07:21:36;23.50;79.30
21495;DHT22;10909;53.590;10.054;2023-07-29T07:24:02;23.40;79.50
21495;DHT22;10909;53.590;10.054;2023-07-29T07:26:28;23.40;79.70
21495;DHT22;10909;53.590;10.054;2023-07-29T07:28:53;23.40;80.00
21495;DHT22;10909;53.590;10.054;2023-07-29T07:31:19;23.40;80.00
21495;DHT22;10909;53.590;10.054;2023-07-29T07:33:45;23.40;80.00
21495;DHT22;10909;53.590;10.054;2023-07-29T07:36:10;23.40;80.00
21495;DHT22;10909;53.590;10.054;2023-07-29T07:38:36;23.40;80.10
21495;DHT22;10909;53.590;10.054;2023-07-29T07:41:02;23.40;80.00
21495;DHT22;10909;53.590;10.054;2023-07-29T07:43:27;23.40;80.00
21495;DHT22;10909;53.590;10.054;2023-07-29T07:46:00;23.40;80.00
21495;DHT22;10909;53.590;10.054;2023-07-29T07:48:27;23.40;80.10
21495;DHT22;10909;53.590;10.054;2023-07-29T07:50:53;23.40;80.20
21495;DHT22;10909;53.590;10.054;2023-07-29T07:53:19;23.40;80.30
21495;DHT22;10909;53.590;10.054;2023-07-29T07:55:45;23.40;80.40
21495;DHT22;10909;53.590;10.054;2023-07-29T07:58:11;23.50;80.50
21495;DHT22;10909;53.590;10.054;2023-07-29T08:00:37;23.50;80.70
21495;DHT22;10909;53.590;10.054;2023-07-29T08:03:03;23.50;80.60
21495;DHT22;10909;53.590;10.054;2023-07-29T08:05:32;23.60;80.50
21495;DHT22;10909;53.590;10.054;2023-07-29T08:07:57;23.60;80.20
21495;DHT22;10909;53.590;10.054;2023-07-29T08:10:23;23.60;80.10
21495;DHT22;10909;53.590;10.054;2023-07-29T08:12:49;23.60;79.70
21495;DHT22;10909;53.590;10.054;2023-07-29T08:15:14;23.60;79.80
21495;DHT22;10909;53.590;10.054;2023-07-29T08:17:40;23.60;79.90
21495;DHT22;10909;53.590;10.054;2023-07-29T08:20:06;23.60;80.10
21495;DHT22;10909;53.590;10.054;2023-07-29T08:22:32;23.60;80.20
21495;DHT22;10909;53.590;10.054;2023-07-29T08:24:58;23.60;79.90
21495;DHT22;10909;53.590;10.054;2023-07-29T08:27:23;23.60;79.90
21495;DHT22;10909;53.590;10.054;2023-07-29T08:29:49;23.60;80.60
21495;DHT22;10909;53.590;10.054;2023-07-29T08:32:14;23.60;79.70
21495;DHT22;10909;53.590;10.054;2023-07-29T08:34:40;23.60;79.50
21495;DHT22;10909;53.590;10.054;2023-07-29T08:37:06;23.60;79.50
21495;DHT22;10909;53.590;10.054;2023-07-29T08:39:31;23.60;79.80
21495;DHT22;10909;53.590;10.054;2023-07-29T08:44:29;23.50;79.60
21495;DHT22;10909;53.590;10.054;2023-07-29T08:46:56;23.50;79.60
21495;DHT22;10909;53.590;10.054;2023-07-29T08:49:23;23.60;79.70
21495;DHT22;10909;53.590;10.054;2023-07-29T08:51:49;23.60;79.60
21495;DHT22;10909;53.590;10.054;2023-07-29T08:54:16;23.60;79.40
21495;DHT22;10909;53.590;10.054;2023-07-29T08:56:42;23.60;79.30
21495;DHT22;10909;53.590;10.054;2023-07-29T08:59:09;23.60;80.00
21495;DHT22;10909;53.590;10.054;2023-07-29T09:01:37;23.60;79.10
21495;DHT22;10909;53.590;10.054;2023-07-29T09:04:03;23.60;78.90
21495;DHT22;10909;53.590;10.054;2023-07-29T09:06:30;23.60;79.00
21495;DHT22;10909;53.590;10.054;2023-07-29T09:08:56;23.60;79.10
21495;DHT22;10909;53.590;10.054;2023-07-29T09:11:23;23.60;79.10
21495;DHT22;10909;53.590;10.054;2023-07-29T09:13:49;23.60;79.20
21495;DHT22;10909;53.590;10.054;2023-07-29T09:16:15;23.60;79.20
21495;DHT22;10909;53.590;10.054;2023-07-29T09:18:41;23.70;79.20
21495;DHT22;10909;53.590;10.054;2023-07-29T09:21:06;23.60;79.20
21495;DHT22;10909;53.590;10.054;2023-07-29T09:23:42;23.70;79.50
21495;DHT22;10909;53.590;10.054;2023-07-29T09:26:08;23.80;79.60
21495;DHT22;10909;53.590;10.054;2023-07-29T09:28:35;23.80;79.60
21495;DHT22;10909;53.590;10.054;2023-07-29T09:31:02;23.90;79.40
21495;DHT22;10909;53.590;10.054;2023-07-29T09:33:28;24.00;79.40
21495;DHT22;10909;53.590;10.054;2023-07-29T09:35:54;24.10;79.30
21495;DHT22;10909;53.590;10.054;2023-07-29T09:38:26;24.10;79.10
21495;DHT22;10909;53.590;10.054;2023-07-29T09:40:57;24.20;78.30
21495;DHT22;10909;53.590;10.054;2023-07-29T09:43:30;24.30;78.40
21495;DHT22;10909;53.590;10.054;2023-07-29T09:46:02;24.30;77.80
21495;DHT22;10909;53.590;10.054;2023-07-29T09:48:33;24.40;77.30
21495;DHT22;10909;53.590;10.054;2023-07-29T09:50:58;24.40;76.60
21495;DHT22;10909;53.590;10.054;2023-07-29T09:53:24;24.50;76.80
21495;DHT22;10909;53.590;10.054;2023-07-29T09:55:50;24.50;76.30
21495;DHT22;10909;53.590;10.054;2023-07-29T09:58:26;24.50;76.00
21495;DHT22;10909;53.590;10.054;2023-07-29T10:00:52;24.50;75.70
21495;DHT22;10909;53.590;10.054;2023-07-29T10:03:21;24.50;76.00
21495;DHT22;10909;53.590;10.054;2023-07-29T10:05:47;24.50;75.80
21495;DHT22;10909;53.590;10.054;2023-07-29T10:08:14;24.60;75.80
21495;DHT22;10909;53.590;10.054;2023-07-29T10:10:42;24.70;75.70
21495;DHT22;10909;53.590;10.054;2023-07-29T10:13:09;24.70;75.70
21495;DHT22;10909;53.590;10.054;2023-07-29T10:15:36;24.80;75.70
21495;DHT22;10909;53.590;10.054;2023-07-29T10:18:02;24.90;75.50
21495;DHT22;10909;53.590;10.054;2023-07-29T10:20:28;25.00;74.90
21495;DHT22;10909;53.590;10.054;2023-07-29T10:22:56;25.10;74.80
21495;DHT22;10909;53.590;10.054;2023-07-29T10:25:24;25.30;74.50
21495;DHT22;10909;53.590;10.054;2023-07-29T10:27:55;25.40;74.00
21495;DHT22;10909;53.590;10.054;2023-07-29T10:30:21;25.50;73.70
21495;DHT22;10909;53.590;10.054;2023-07-29T10:32:49;25.60;73.40
21495;DHT22;10909;53.590;10.054;2023-07-29T10:35:15;25.80;72.80
21495;DHT22;10909;53.590;10.054;2023-07-29T10:37:42;25.90;71.60
21495;DHT22;10909;53.590;10.054;2023-07-29T10:40:11;25.90;69.50
21495;DHT22;10909;53.590;10.054;2023-07-29T10:42:38;25.90;67.60
21495;DHT22;10909;53.590;10.054;2023-07-29T10:45:24;25.90;68.50
21495;DHT22;10909;53.590;10.054;2023-07-29T10:47:50;25.90;66.30
21495;DHT22;10909;53.590;10.054;2023-07-29T10:50:20;25.90;68.30
21495;DHT22;10909;53.590;10.054;2023-07-29T10:52:50;25.80;67.20
21495;DHT22;10909;53.590;10.054;2023-07-29T10:55:34;25.80;67.30
21495;DHT22;10909;53.590;10.054;2023-07-29T10:58:12;25.70;66.60
21495;DHT22;10909;53.590;10.054;2023-07-29T11:00:38;25.70;67.60
21495;DHT22;10909;53.590;10.054;2023-07-29T11:03:07;25.70;68.00
21495;DHT22;10909;53.590;10.054;2023-07-29T11:11:02;25.60;66.40
21495;DHT22;10909;53.590;10.054;2023-07-29T11:13:36;25.60;66.20
21495;DHT22;10909;53.590;10.054;2023-07-29T11:16:02;25.60;66.80
21495;DHT22;10909;53.590;10.054;2023-07-29T11:18:36;25.70;67.10
21495;DHT22;10909;53.590;10.054;2023-07-29T11:21:03;25.60;66.50
21495;DHT22;10909;53.590;10.054;2023-07-29T11:23:34;25.60;66.70
21495;DHT22;10909;53.590;10.054;2023-07-29T11:26:00;25.60;66.50
21495;DHT22;10909;53.590;10.054;2023-07-29T11:28:28;25.60;66.40
21495;DHT22;10909;53.590;10.054;2023-07-29T11:30:55;25.60;65.90
21495;DHT22;10909;53.590;10.054;2023-07-29T11:33:25;25.60;66.40
21495;DHT22;10909;53.590;10.054;2023-07-29T11:35:52;25.60;66.70
21495;DHT22;10909;53.590;10.054;2023-07-29T11:38:19;25.60;66.70
21495;DHT22;10909;53.590;10.054;2023-07-29T11:40:55;25.60;66.50
21495;DHT22;10909;53.590;10.054;2023-07-29T11:43:21;25.60;64.70
21495;DHT22;10909;53.590;10.054;2023-07-29T11:45:47;25.70;65.00
21495;DHT22;10909;53.590;10.054;2023-07-29T11:48:12;25.70;66.20
21495;DHT22;10909;53.590;10.054;2023-07-29T11:50:38;25.80;66.10
21495;DHT22;10909;53.590;10.054;2023-07-29T11:53:05;25.90;65.20
21495;DHT22;10909;53.590;10.054;2023-07-29T11:55:30;26.00;65.70
21495;DHT22;10909;53.590;10.054;2023-07-29T11:57:56;26.00;64.80
21495;DHT22;10909;53.590;10.054;2023-07-29T12:00:22;26.10;64.30
21495;DHT22;10909;53.590;10.054;2023-07-29T12:02:49;26.20;65.00
21495;DHT22;10909;53.590;10.054;2023-07-29T12:05:15;26.30;64.70
21495;DHT22;10909;53.590;10.054;2023-07-29T12:07:42;26.40;65.10
21495;DHT22;10909;53.590;10.054;2023-07-29T12:10:10;26.50;64.00
21495;DHT22;10909;53.590;10.054;2023-07-29T12:12:55;26.70;63.00
21495;DHT22;10909;53.590;10.054;2023-07-29T12:15:28;26.80;59.30
21495;DHT22;10909;53.590;10.054;2023-07-29T12:17:58;26.80;60.40
21495;DHT22;10909;53.590;10.054;2023-07-29T12:20:24;26.80;61.30
21495;DHT22;10909;53.590;10.054;2023-07-29T12:22:57;26.90;62.10
21495;DHT22;10909;53.590;10.054;2023-07-29T12:25:25;26.90;61.70
21495;DHT22;10909;53.590;10.054;2023-07-29T12:27:51;27.00;62.60
21495;DHT22;10909;53.590;10.054;2023-07-29T12:30:20;27.00;61.10
21495;DHT22;10909;53.590;10.054;2023-07-29T12:32:46;27.10;60.80
21495;DHT22;10909;53.590;10.054;2023-07-29T12:35:13;27.20;60.80
21495;DHT22;10909;53.590;10.054;2023-07-29T12:37:39;27.30;60.60
21495;DHT22;10909;53.590;10.054;2023-07-29T12:40:09;27.40;60.70
21495;DHT22;10909;53.590;10.054;2023-07-29T12:42:45;27.70;61.30
21495;DHT22;10909;53.590;10.054;2023-07-29T12:45:11;27.90;60.00
21495;DHT22;10909;53.590;10.054;2023-07-29T12:47:36;28.30;58.70
21495;DHT22;10909;53.590;10.054;2023-07-29T12:50:02;28.50;58.80
21495;DHT22;10909;53.590;10.054;2023-07-29T12:52:28;28.70;57.90
21495;DHT22;10909;53.590;10.054;2023-07-29T12:54:53;29.00;57.30
21495;DHT22;10909;53.590;10.054;2023-07-29T12:57:19;29.30;57.00
21495;DHT22;10909;53.590;10.054;2023-07-29T12:59:44;29.50;57.10
21495;DHT22;10909;53.590;10.054;2023-07-29T13:02:10;29.70;56.30
21495;DHT22;10909;53.590;10.054;2023-07-29T13:04:35;29.90;55.50
21495;DHT22;10909;53.590;10.054;2023-07-29T13:07:01;30.10;54.50
21495;DHT22;10909;53.590;10.054;2023-07-29T13:09:27;30.20;54.90
21495;DHT22;10909;53.590;10.054;2023-07-29T13:11:53;30.40;55.10
21495;DHT22;10909;53.590;10.054;2023-07-29T13:14:19;30.60;54.70
21495;DHT22;10909;53.590;10.054;2023-07-29T13:16:44;30.70;53.30
21495;DHT22;10909;53.590;10.054;2023-07-29T13:19:10;30.70;52.60
21495;DHT22;10909;53.590;10.054;2023-07-29T13:21:35;30.90;53.40
21495;DHT22;10909;53.590;10.054;2023-07-29T13:24:01;31.00;52.60
21495;DHT22;10909;53.590;10.054;2023-07-29T13:26:27;31.10;52.40
21495;DHT22;10909;53.590;10.054;2023-07-29T13:28:53;31.20;51.60
21495;DHT22;10909;53.590;10.054;2023-07-29T13:31:18;31.20;50.60
21495;DHT22;10909;53.590;10.054;2023-07-29T13:33:44;31.00;49.20
21495;DHT22;10909;53.590;10.054;2023-07-29T13:36:10;30.80;49.10
21495;DHT22;10909;53.590;10.054;2023-07-29T13:38:35;30.70;50.20
21495;DHT22;10909;53.590;10.054;2023-07-29T13:41:03;30.50;50.60
21495;DHT22;10909;53.590;10.054;2023-07-29T13:43:29;30.40;49.70
21495;DHT22;10909;53.590;10.054;2023-07-29T13:45:54;30.40;51.30
21495;DHT22;10909;53.590;10.054;2023-07-29T13:48:20;30.30;51.00
21495;DHT22;10909;53.590;10.054;2023-07-29T13:50:46;30.30;51.80
21495;DHT22;10909;53.590;10.054;2023-07-29T13:53:11;30.40;51.80
21495;DHT22;10909;53.590;10.054;2023-07-29T13:55:37;30.40;51.40
21495;DHT22;10909;53.590;10.054;2023-07-29T13:58:03;30.50;50.60
21495;DHT22;10909;53.590;10.054;2023-07-29T14:00:28;30.50;51.10
21495;DHT22;10909;53.590;10.054;2023-07-29T14:02:54;30.50;50.90
21495;DHT22;10909;53.590;10.054;2023-07-29T14:05:19;30.60;50.40
21495;DHT22;10909;53.590;10.054;2023-07-29T14:07:45;30.70;50.60
21495;DHT22;10909;53.590;10.054;2023-07-29T14:10:11;30.90;50.60
21495;DHT22;10909;53.590;10.054;2023-07-29T14:12:36;30.90;50.10
21495;DHT22;10909;53.590;10.054;2023-07-29T14:15:04;30.90;50.00
21495;DHT22;10909;53.590;10.054;2023-07-29T14:17:30;30.90;49.30
21495;DHT22;10909;53.590;10.054;2023-07-29T14:19:56;31.00;50.30
21495;DHT22;10909;53.590;10.054;2023-07-29T14:22:21;31.10;51.00
21495;DHT22;10909;53.590;10.054;2023-07-29T14:24:47;31.30;51.00
21495;DHT22;10909;53.590;10.054;2023-07-29T14:27:13;31.70;51.10
21495;DHT22;10909;53.590;10.054;2023-07-29T14:29:39;31.90;50.70
21495;DHT22;10909;53.590;10.054;2023-07-29T14:32:05;32.10;49.40
21495;DHT22;10909;53.590;10.054;2023-07-29T14:34:30;32.30;48.70
21495;DHT22;10909;53.590;10.054;2023-07-29T14:36:56;32.50;47.90
21495;DHT22;10909;53.590;10.054;2023-07-29T14:39:22;32.60;48.70
21495;DHT22;10909;53.590;10.054;2023-07-29T14:41:47;32.70;48.50
21495;DHT22;10909;53.590;10.054;2023-07-29T14:44:13;32.80;48.50
21495;DHT22;10909;53.590;10.054;2023-07-29T14:46:39;32.80;47.80
21495;DHT22;10909;53.590;10.054;2023-07-29T14:49:05;32.80;47.20
21495;DHT22;10909;53.590;10.054;2023-07-29T14:51:30;32.70;46.40
21495;DHT22;10909;53.590;10.054;2023-07-29T14:53:56;32.60;46.80
21495;DHT22;10909;53.590;10.054;2023-07-29T14:56:23;32.50;47.10
21495;DHT22;10909;53.590;10.054;2023-07-29T14:58:48;32.50;46.60
21495;DHT22;10909;53.590;10.054;2023-07-29T15:01:15;32.40;46.60
21495;DHT22;10909;53.590;10.054;2023-07-29T15:03:41;32.40;47.20
21495;DHT22;10909;53.590;10.054;2023-07-29T15:06:07;32.50;46.30
21495;DHT22;10909;53.590;10.054;2023-07-29T15:08:32;32.50;46.80
21495;DHT22;10909;53.590;10.054;2023-07-29T15:10:58;32.50;47.50
21495;DHT22;10909;53.590;10.054;2023-07-29T15:13:24;32.60;46.80
21495;DHT22;10909;53.590;10.054;2023-07-29T15:15:49;32.80;46.80
21495;DHT22;10909;53.590;10.054;2023-07-29T15:18:17;32.90;45.50
21495;DHT22;10909;53.590;10.054;2023-07-29T15:20:43;33.00;45.20
21495;DHT22;10909;53.590;10.054;2023-07-29T15:23:09;33.00;44.90
21495;DHT22;10909;53.590;10.054;2023-07-29T15:25:34;33.00;45.10
21495;DHT22;10909;53.590;10.054;2023-07-29T15:28:02;33.10;44.80